Time;durP1;ratioP1;P1;durP2;ratioP2;P2;SDS_P1;SDS_P2;PMS_P1;PMS_P2;Temp;Humidity;BMP_temperature;BMP_pressure;BME280_temperature;BME280_humidity;BME280_pressure;Samples;Min_cycle;Max_cycle;Signal;HPM_P1;HPM_P2
2021/01/01 00:00:33;;;;;;;407.45;226.65;;;;;;;1.13;100.00;100159.44;4995683;28;20513;-87
2021/01/01 00:03:00;;;;;;;413.42;228.48;;;;;;;1.13;100.00;100162.06;4995655;28;20073;-89
2021/01/01 00:05:29;;;;;;;411.30;220.00;;;;;;;1.02;100.00;100155.94;4979712;28;20548;-86
2021/01/01 00:07:55;;;;;;;;;;;;;;;0.89;100.00;100158.66;5013264;28;20068;-88
2021/01/01 00:10:20;;;;;;;493.00;257.90;;;;;;;0.80;100.00;100162.03;5012785;28;19964;-88
2021/01/01 00:12:46;;;;;;;501.90;258.73;;;;;;;0.82;100.00;100163.59;4994725;28;20464;-89
2021/01/01 00:15:12;;;;;;;477.83;250.43;;;;;;;0.79;100.00;100170.91;4994095;28;20393;-89
2021/01/01 00:17:38;;;;;;;491.15;256.60;;;;;;;0.74;100.00;100167.78;5013977;28;20045;-87
2021/01/01 00:20:06;;;;;;;459.95;231.15;;;;;;;0.79;100.00;100170.91;4993207;28;20141;-87
2021/01/01 00:22:31;;;;;;;466.52;244.68;;;;;;;0.83;100.00;100173.19;5011723;28;20120;-86
2021/01/01 00:24:56;;;;;;;440.58;229.07;;;;;;;0.88;100.00;100180.78;4977838;28;20133;-87
2021/01/01 00:27:22;;;;;;;422.33;213.07;;;;;;;0.89;100.00;100174.53;4962754;28;20040;-84
2021/01/01 00:29:47;;;;;;;400.25;212.35;;;;;;;0.94;100.00;100180.31;4977705;28;20461;-87
2021/01/01 00:32:12;;;;;;;381.92;203.10;;;;;;;0.93;100.00;100172.50;4971350;28;20045;-88
2021/01/01 00:34:38;;;;;;;296.50;144.43;;;;;;;0.93;100.00;100175.16;5010980;28;20041;-86
2021/01/01 00:37:03;;;;;;;304.30;146.77;;;;;;;0.97;100.00;100176.59;4981072;28;20042;-86
2021/01/01 00:39:29;;;;;;;304.25;151.05;;;;;;;1.03;100.00;100176.13;4976279;28;20038;-85
2021/01/01 00:41:54;;;;;;;281.25;140.50;;;;;;;1.00;100.00;100171.06;5002005;28;20120;-86
2021/01/01 00:44:20;;;;;;;287.17;144.50;;;;;;;1.02;100.00;100177.09;4995453;28;20042;-88
2021/01/01 00:46:45;;;;;;;251.93;129.32;;;;;;;0.98;100.00;100175.63;5000802;28;20746;-88
2021/01/01 00:49:10;;;;;;;269.67;131.30;;;;;;;0.98;100.00;100180.91;5001368;28;20533;-84
2021/01/01 00:51:36;;;;;;;265.52;134.68;;;;;;;0.94;100.00;100182.94;4993372;28;20042;-87
2021/01/01 00:54:02;;;;;;;231.40;109.30;;;;;;;0.93;100.00;100180.44;4990790;28;20061;-88
2021/01/01 00:56:29;;;;;;;245.20;127.95;;;;;;;0.94;100.00;100176.81;4977249;28;20121;-88
2021/01/01 00:58:56;;;;;;;248.32;127.75;;;;;;;0.91;100.00;100177.91;4991926;28;20493;-88
2021/01/01 01:01:26;;;;;;;251.60;123.07;;;;;;;0.82;100.00;100186.53;4974997;28;20121;-87
2021/01/01 01:03:53;;;;;;;220.98;107.88;;;;;;;0.82;100.00;100178.59;4993274;28;20080;-85
2021/01/01 01:06:20;;;;;;;232.43;118.18;;;;;;;0.87;100.00;100187.03;5003799;28;20042;-86
2021/01/01 01:08:45;;;;;;;238.55;121.72;;;;;;;0.86;100.00;100190.59;4997054;28;20038;-85
2021/01/01 01:11:11;;;;;;;244.45;124.13;;;;;;;0.81;100.00;100187.50;4975565;28;20390;-88
2021/01/01 01:13:37;;;;;;;266.98;133.68;;;;;;;0.78;100.00;100187.72;5008256;28;20038;-88
2021/01/01 01:16:03;;;;;;;254.55;126.15;;;;;;;0.82;100.00;100190.00;4973874;28;20032;-85
2021/01/01 01:18:29;;;;;;;233.98;114.43;;;;;;;0.79;100.00;100189.41;4976524;28;20283;-85
2021/01/01 01:20:54;;;;;;;217.73;112.35;;;;;;;0.80;100.00;100191.91;5004142;28;20402;-85
2021/01/01 01:23:20;;;;;;;212.30;105.78;;;;;;;0.74;100.00;100186.25;4963186;28;20046;-86
2021/01/01 01:25:46;;;;;;;239.43;115.60;;;;;;;0.75;100.00;100182.66;4974809;28;20049;-87
2021/01/01 01:28:11;;;;;;;232.85;114.72;;;;;;;0.74;100.00;100192.38;4988727;28;20406;-86
2021/01/01 01:30:37;;;;;;;244.13;122.28;;;;;;;0.68;100.00;100196.31;4990231;28;20030;-83
2021/01/01 01:33:02;;;;;;;289.55;151.52;;;;;;;0.70;100.00;100195.38;4985857;28;20042;-89
2021/01/01 01:35:28;;;;;;;246.02;123.22;;;;;;;0.61;100.00;100202.19;5005868;28;20053;-87
2021/01/01 01:37:53;;;;;;;260.45;128.38;;;;;;;0.56;100.00;100205.19;4996142;28;20038;-88
2021/01/01 01:40:19;;;;;;;275.27;133.68;;;;;;;0.53;100.00;100202.75;4990915;28;20045;-85
2021/01/01 01:42:44;;;;;;;272.92;133.63;;;;;;;0.50;100.00;100202.16;5007040;28;20038;-85
2021/01/01 01:45:10;;;;;;;272.13;129.30;;;;;;;0.50;100.00;100205.63;4988592;28;20117;-83
2021/01/01 01:47:37;;;;;;;283.05;137.93;;;;;;;0.51;100.00;100201.19;4972047;28;20099;-85
2021/01/01 01:50:03;;;;;;;268.90;129.00;;;;;;;0.43;100.00;100204.38;4989310;28;20041;-86
2021/01/01 01:52:29;;;;;;;273.48;129.63;;;;;;;0.38;100.00;100206.56;4992203;28;20556;-86
2021/01/01 01:54:54;;;;;;;270.40;131.50;;;;;;;0.39;100.00;100210.88;4972115;28;20129;-88
2021/01/01 01:57:23;;;;;;;279.35;126.22;;;;;;;0.33;100.00;100209.53;4972028;28;20548;-87
2021/01/01 01:59:52;;;;;;;289.43;123.03;;;;;;;0.27;100.00;100203.84;4988769;28;20046;-87
2021/01/01 02:02:18;;;;;;;281.20;131.05;;;;;;;0.22;100.00;100207.66;4989044;28;20281;-85
2021/01/01 02:04:43;;;;;;;289.65;138.50;;;;;;;0.27;100.00;100215.25;4988699;28;20038;-89
2021/01/01 02:07:09;;;;;;;271.05;132.85;;;;;;;0.25;100.00;100219.78;4993166;28;20628;-86
2021/01/01 02:09:35;;;;;;;261.55;129.18;;;;;;;0.25;100.00;100209.22;4992316;28;20141;-85
2021/01/01 02:12:00;;;;;;;270.45;128.73;;;;;;;0.26;100.00;100212.72;4988798;28;20084;-85
2021/01/01 02:14:26;;;;;;;290.92;140.93;;;;;;;0.26;100.00;100215.34;4985954;28;20038;-84
2021/01/01 02:16:51;;;;;;;236.73;115.20;;;;;;;0.22;100.00;100223.50;4973394;28;20037;-85
2021/01/01 02:19:16;;;;;;;267.35;133.00;;;;;;;0.27;100.00;100215.25;4988061;28;20040;-86
2021/01/01 02:21:42;;;;;;;255.38;130.18;;;;;;;0.29;100.00;100217.75;4988551;28;20038;-88
2021/01/01 02:24:09;;;;;;;247.95;125.25;;;;;;;0.31;100.00;100219.34;4995382;28;20045;-86
2021/01/01 02:26:35;;;;;;;249.32;127.32;;;;;;;0.27;100.00;100219.69;4977738;28;20096;-86
2021/01/01 02:29:01;;;;;;;256.95;130.32;;;;;;;0.28;100.00;100226.66;4978966;28;20029;-85
2021/01/01 02:31:26;;;;;;;242.15;122.95;;;;;;;0.26;100.00;100225.91;5012275;28;20082;-84
2021/01/01 02:33:51;;;;;;;251.27;121.82;;;;;;;0.21;100.00;100232.38;4964624;28;20088;-85
2021/01/01 02:36:17;;;;;;;252.55;123.78;;;;;;;0.12;100.00;100233.03;4990549;28;20042;-87
2021/01/01 02:38:42;;;;;;;260.48;129.63;;;;;;;0.16;100.00;100228.38;4956245;28;20053;-87
2021/01/01 02:41:08;;;;;;;238.93;119.57;;;;;;;0.22;100.00;100228.78;4979483;28;20042;-84
2021/01/01 02:43:33;;;;;;;244.10;126.90;;;;;;;0.25;100.00;100226.88;4991844;28;20042;-88
2021/01/01 02:45:59;;;;;;;225.30;117.72;;;;;;;0.24;100.00;100227.84;4969014;28;20045;-87
2021/01/01 02:48:24;;;;;;;230.85;122.13;;;;;;;0.27;100.00;100239.00;4976622;28;20070;-91
2021/01/01 02:50:51;;;;;;;235.52;116.88;;;;;;;0.17;100.00;100230.94;5010824;28;20038;-85
2021/01/01 02:53:16;;;;;;;240.60;120.18;;;;;;;0.15;100.00;100224.91;5008158;28;20061;-85
2021/01/01 02:55:41;;;;;;;236.63;124.18;;;;;;;0.27;100.00;100225.81;5010332;28;20084;-91
2021/01/01 02:58:07;;;;;;;233.23;123.13;;;;;;;0.32;100.00;100233.41;4980801;28;20038;-85
2021/01/01 03:00:35;;;;;;;208.23;112.75;;;;;;;0.25;100.00;100232.16;4985524;28;20045;-89
2021/01/01 03:03:01;;;;;;;206.30;106.22;;;;;;;0.18;100.00;100227.31;5004070;28;20398;-84
2021/01/01 03:05:27;;;;;;;229.45;119.25;;;;;;;0.12;100.00;100233.03;4998151;28;20040;-84
2021/01/01 03:07:52;;;;;;;207.13;108.15;;;;;;;0.02;100.00;100226.75;4976854;28;20052;-85
2021/01/01 03:10:18;;;;;;;225.45;111.32;;;;;;;-0.05;100.00;100231.63;5009662;28;20042;-84
2021/01/01 03:12:44;;;;;;;219.85;115.82;;;;;;;-0.01;100.00;100237.50;4992175;28;20046;-85
2021/01/01 03:15:10;;;;;;;210.93;111.47;;;;;;;-0.05;100.00;100228.16;4992226;28;20133;-87
2021/01/01 03:17:35;;;;;;;211.48;108.55;;;;;;;-0.10;100.00;100232.91;4998751;28;20113;-83
2021/01/01 03:20:01;;;;;;;218.13;111.97;;;;;;;-0.10;100.00;100232.91;4990927;28;20455;-91
2021/01/01 03:22:35;;;;;;;215.82;113.38;;;;;;;-0.13;100.00;100227.84;4962041;28;20050;-86
2021/01/01 03:25:06;;;;;;;208.70;109.68;;;;;;;-0.13;100.00;100227.84;4980554;28;20042;-88
2021/01/01 03:27:31;;;;;;;208.90;106.53;;;;;;;-0.19;100.00;100233.56;4989182;28;20042;-86
2021/01/01 03:29:57;;;;;;;223.57;114.47;;;;;;;-0.18;100.00;100229.97;5007887;28;20038;-83
2021/01/01 03:32:23;;;;;;;220.52;116.55;;;;;;;-0.19;100.00;100231.75;4993231;28;20046;-89
2021/01/01 03:34:49;;;;;;;209.30;108.35;;;;;;;-0.20;100.00;100229.22;4992197;28;20042;-85
2021/01/01 03:37:14;;;;;;;241.32;119.72;;;;;;;-0.27;100.00;100224.38;4977587;28;20091;-89
2021/01/01 03:39:42;;;;;;;226.80;112.88;;;;;;;-0.21;100.00;100224.91;5011450;28;20042;-89
2021/01/01 03:42:11;;;;;;;230.82;119.47;;;;;;;-0.28;100.00;100224.50;4961160;28;20176;-88
2021/01/01 03:44:37;;;;;;;227.95;117.85;;;;;;;-0.32;100.00;100223.84;4961165;28;20038;-90
2021/01/01 03:47:04;;;;;;;225.13;116.10;;;;;;;-0.30;100.00;100224.59;4999931;28;20537;-87
2021/01/01 03:49:30;;;;;;;214.73;116.55;;;;;;;-0.37;100.00;100226.00;4961541;28;20034;-83
2021/01/01 03:51:57;;;;;;;231.40;114.57;;;;;;;-0.51;100.00;100223.50;4994126;28;20477;-84
2021/01/01 03:54:24;;;;;;;201.57;102.57;;;;;;;-0.56;100.00;100225.59;4992435;28;20486;-84
2021/01/01 03:56:51;;;;;;;236.82;115.72;;;;;;;-0.60;100.00;100230.25;4975189;28;20108;-87
2021/01/01 03:59:17;;;;;;;264.27;131.90;;;;;;;-0.47;100.00;100230.22;4984096;28;20061;-91
2021/01/01 04:01:43;;;;;;;263.88;122.05;;;;;;;-0.58;100.00;100233.59;4957772;28;20030;-86
2021/01/01 04:04:08;;;;;;;256.98;129.10;;;;;;;-0.57;100.00;100229.19;4991773;28;20136;-85
2021/01/01 04:06:35;;;;;;;271.25;129.85;;;;;;;-0.47;100.00;100227.59;4994724;28;20038;-88
2021/01/01 04:09:01;;;;;;;238.68;119.95;;;;;;;-0.56;100.00;100230.88;4989408;28;20045;-86
2021/01/01 04:11:39;;;;;;;246.18;121.85;;;;;;;-0.55;100.00;100220.19;4999091;28;20042;-84
2021/01/01 04:14:07;;;;;;;234.43;120.37;;;;;;;-0.56;100.00;100231.72;4993699;28;20546;-83
2021/01/01 04:16:32;;;;;;;239.68;120.35;;;;;;;-0.55;100.00;100238.66;4993601;28;20136;-85
2021/01/01 04:18:58;;;;;;;236.73;119.40;;;;;;;-0.57;100.00;100230.03;4980738;28;20454;-87
2021/01/01 04:21:23;;;;;;;238.70;122.10;;;;;;;-0.53;100.00;100243.84;4986665;28;20038;-90
2021/01/01 04:23:49;;;;;;;235.68;120.20;;;;;;;-0.60;100.00;100237.31;4979088;28;20449;-86
2021/01/01 04:26:14;;;;;;;244.15;119.07;;;;;;;-0.75;100.00;100241.81;4978319;28;20570;-84
2021/01/01 04:28:40;;;;;;;245.88;115.18;;;;;;;-0.80;100.00;100249.22;4962272;28;20041;-87
2021/01/01 04:31:12;;;;;;;314.92;149.35;;;;;;;-0.67;100.00;100244.78;5013813;28;20069;-86
2021/01/01 04:33:38;;;;;;;295.55;139.43;;;;;;;-0.68;100.00;100241.31;4969787;28;20042;-87
2021/01/01 04:36:04;;;;;;;317.00;150.00;;;;;;;-0.61;100.00;100238.25;4976888;28;20046;-87
2021/01/01 04:38:29;;;;;;;300.77;149.98;;;;;;;-0.61;100.00;100251.41;4998136;28;20108;-89
2021/01/01 04:40:55;;;;;;;301.95;150.70;;;;;;;-0.54;100.00;100252.69;5011707;28;20053;-86
2021/01/01 04:43:23;;;;;;;311.60;137.73;;;;;;;-0.68;100.00;100249.22;4992816;28;20073;-88
2021/01/01 04:45:49;;;;;;;309.10;145.68;;;;;;;-0.62;100.00;100242.69;4975954;28;20042;-87
2021/01/01 04:48:14;;;;;;;310.17;150.20;;;;;;;-0.68;100.00;100248.38;4972735;28;20038;-85
2021/01/01 04:50:40;;;;;;;312.42;148.15;;;;;;;-0.63;100.00;100253.31;4959243;28;20054;-88
2021/01/01 04:53:09;;;;;;;281.88;140.00;;;;;;;-0.62;100.00;100253.22;4981913;28;20061;-87
2021/01/01 04:55:37;;;;;;;298.60;143.65;;;;;;;-0.66;100.00;100245.63;5011199;28;20565;-85
2021/01/01 04:58:02;;;;;;;292.40;137.23;;;;;;;-0.69;100.00;100250.16;4994237;28;20042;-87
2021/01/01 05:00:27;;;;;;;289.95;138.93;;;;;;;-0.76;100.00;100255.97;5011725;28;20034;-85
2021/01/01 05:02:55;;;;;;;284.45;140.73;;;;;;;-0.82;100.00;100259.84;4977431;28;20486;-87
2021/01/01 05:05:27;;;;;;;285.40;138.57;;;;;;;-0.89;100.00;100255.97;4983326;28;20052;-86
2021/01/01 05:07:53;;;;;;;298.00;141.13;;;;;;;-0.86;100.00;100257.53;4993975;28;20132;-88
2021/01/01 05:10:19;;;;;;;282.00;131.68;;;;;;;-0.89;100.00;100258.59;4976183;28;20141;-85
2021/01/01 05:12:47;;;;;;;313.42;152.82;;;;;;;-0.79;100.00;100264.91;5003706;28;20060;-87
2021/01/01 05:15:13;;;;;;;320.70;152.65;;;;;;;-0.77;100.00;100256.91;4996179;28;20045;-84
2021/01/01 05:17:38;;;;;;;275.13;136.35;;;;;;;-0.72;100.00;100255.66;5009395;28;20041;-83
2021/01/01 05:20:09;;;;;;;292.90;141.25;;;;;;;-0.74;100.00;100261.97;4978288;28;20111;-88
2021/01/01 05:22:36;;;;;;;290.50;142.40;;;;;;;-0.73;100.00;100261.03;4994611;28;20372;-85
2021/01/01 05:25:16;;;;;;;283.48;142.13;;;;;;;-0.73;100.00;100261.84;5008755;28;20030;-87
2021/01/01 05:27:46;;;;;;;302.67;149.63;;;;;;;-0.68;100.00;100259.75;4985302;28;20144;-86
2021/01/01 05:30:17;;;;;;;285.10;137.52;;;;;;;-0.69;100.00;100257.25;4976134;28;20091;-87
2021/01/01 05:32:54;;;;;;;296.50;147.38;;;;;;;-0.70;100.00;100272.19;5005982;28;20052;-85
2021/01/01 05:35:31;;;;;;;296.75;147.20;;;;;;;-0.70;100.00;100259.00;4976586;28;20050;-84
2021/01/01 05:38:13;;;;;;;270.35;131.43;;;;;;;-0.69;100.00;100268.63;5010485;28;20042;-88
2021/01/01 05:40:40;;;;;;;273.75;133.30;;;;;;;-0.74;100.00;100265.44;4958750;28;20046;-82
2021/01/01 05:43:23;;;;;;;280.60;136.00;;;;;;;-0.73;100.00;100274.19;4980089;28;20052;-85
2021/01/01 05:45:50;;;;;;;267.35;134.13;;;;;;;-0.63;100.00;100277.03;4970717;28;20129;-85
2021/01/01 05:48:17;;;;;;;261.92;134.93;;;;;;;-0.73;100.00;100267.13;5009673;28;20300;-86
2021/01/01 05:50:43;;;;;;;246.90;131.13;;;;;;;-0.78;100.00;100269.22;4976882;28;20048;-88
2021/01/01 05:53:13;;;;;;;247.45;130.23;;;;;;;-0.89;100.00;100279.66;4992504;28;20505;-87
2021/01/01 05:55:38;;;;;;;240.13;123.63;;;;;;;-0.99;100.00;100268.06;4992631;28;20049;-87
2021/01/01 05:58:26;;;;;;;264.83;135.18;;;;;;;-0.96;100.00;100275.75;5009043;28;20049;-83
2021/01/01 06:00:56;;;;;;;255.90;135.05;;;;;;;-0.91;100.00;100274.50;4992305;28;20052;-88
2021/01/01 06:03:24;;;;;;;254.10;129.52;;;;;;;-0.94;100.00;100284.41;4988316;28;20046;-87
2021/01/01 06:05:57;;;;;;;255.57;130.77;;;;;;;-0.92;100.00;100283.34;4989177;28;20073;-85
2021/01/01 06:08:24;;;;;;;264.73;136.20;;;;;;;-0.98;100.00;100285.53;5004641;28;20042;-84
2021/01/01 06:10:51;;;;;;;278.77;130.60;;;;;;;-1.07;100.00;100294.91;4995149;28;20053;-82
2021/01/01 06:13:21;;;;;;;291.95;142.00;;;;;;;-0.96;100.00;100284.50;4992080;28;20050;-87
2021/01/01 06:15:58;;;;;;;339.67;165.75;;;;;;;-0.87;100.00;100293.56;5003680;28;20037;-82
2021/01/01 06:18:26;;;;;;;276.58;136.95;;;;;;;-0.82;100.00;100283.56;5003713;28;20042;-85
2021/01/01 06:21:01;;;;;;;285.85;136.65;;;;;;;-0.83;100.00;100288.97;5008435;28;20223;-83
2021/01/01 06:23:50;;;;;;;307.40;148.63;;;;;;;-0.87;100.00;100288.28;4986125;28;20124;-83
2021/01/01 06:26:16;;;;;;;327.98;159.30;;;;;;;-0.82;100.00;100288.84;5003573;28;20046;-84
2021/01/01 06:28:46;;;;;;;315.52;153.35;;;;;;;-0.75;100.00;100295.38;4986098;28;20092;-84
2021/01/01 06:31:12;;;;;;;257.73;123.88;;;;;;;-0.79;100.00;100301.78;5004341;28;20131;-84
2021/01/01 06:33:42;;;;;;;283.23;140.95;;;;;;;-0.83;100.00;100305.59;5004931;28;20494;-85
2021/01/01 06:36:08;;;;;;;267.83;134.77;;;;;;;-0.86;100.00;100311.06;4974591;28;20060;-83
2021/01/01 06:38:41;;;;;;;271.23;138.43;;;;;;;-0.94;100.00;100318.66;4986298;28;20038;-85
2021/01/01 06:41:34;;;;;;;275.20;130.88;;;;;;;-1.02;100.00;100315.66;4982113;28;20041;-81
2021/01/01 06:44:00;;;;;;;309.08;150.85;;;;;;;-0.85;100.00;100319.81;4981141;28;20041;-88
2021/01/01 06:46:32;;;;;;;287.38;136.32;;;;;;;-0.93;100.00;100317.69;5003928;28;20046;-86
2021/01/01 06:48:57;;;;;;;343.48;162.40;;;;;;;-0.79;100.00;100316.78;5004865;28;20157;-83
2021/01/01 06:51:23;;;;;;;300.52;146.77;;;;;;;-0.71;100.00;100327.63;4987516;28;20495;-87
2021/01/01 06:53:49;;;;;;;299.55;144.95;;;;;;;-0.79;100.00;100325.50;4971788;28;20046;-86
2021/01/01 06:56:19;;;;;;;262.35;133.73;;;;;;;-0.79;100.00;100330.78;4988525;28;20049;-87
2021/01/01 06:58:44;;;;;;;272.60;134.50;;;;;;;-0.92;100.00;100330.78;5002034;28;20127;-87
2021/01/01 07:01:17;;;;;;;272.48;134.07;;;;;;;-0.96;100.00;100338.97;4970765;28;20037;-84
2021/01/01 07:03:43;;;;;;;288.60;142.70;;;;;;;-0.99;100.00;100341.81;5003348;28;20107;-86
2021/01/01 07:06:08;;;;;;;274.27;138.13;;;;;;;-0.96;100.00;100344.22;4988116;28;20122;-83
2021/01/01 07:08:39;;;;;;;275.02;136.18;;;;;;;-0.99;100.00;100344.44;4986000;28;20046;-86
2021/01/01 07:11:08;;;;;;;269.00;131.05;;;;;;;-1.01;100.00;100351.59;4984172;28;20470;-86
2021/01/01 07:13:45;;;;;;;287.10;143.25;;;;;;;-1.01;100.00;100356.84;5001100;28;20076;-84
2021/01/01 07:16:12;;;;;;;271.75;133.07;;;;;;;-1.01;100.00;100346.31;5005995;28;20042;-86
2021/01/01 07:18:38;;;;;;;288.15;137.95;;;;;;;-1.02;100.00;100352.53;4987570;28;20107;-83
2021/01/01 07:21:05;;;;;;;292.48;140.88;;;;;;;-1.09;100.00;100359.13;5011678;28;20045;-86
2021/01/01 07:23:31;;;;;;;287.17;141.50;;;;;;;-0.98;100.00;100359.28;5001956;28;20107;-84
2021/01/01 07:25:58;;;;;;;267.58;129.10;;;;;;;-1.05;100.00;100364.13;4987876;28;20513;-85
2021/01/01 07:28:26;;;;;;;297.48;141.38;;;;;;;-1.02;100.00;100356.00;4999786;28;20046;-86
2021/01/01 07:30:52;;;;;;;300.50;143.50;;;;;;;-0.97;100.00;100363.63;4987688;28;20092;-85
2021/01/01 07:33:23;;;;;;;334.45;158.93;;;;;;;-0.82;100.00;100362.59;4989770;28;20042;-86
2021/01/01 07:36:00;;;;;;;300.98;146.45;;;;;;;-0.73;100.00;100367.25;4972049;28;20045;-86
2021/01/01 07:38:28;;;;;;;282.77;136.30;;;;;;;-0.72;100.00;100368.97;5006453;28;20052;-84
2021/01/01 07:40:54;;;;;;;287.42;139.07;;;;;;;-0.66;100.00;100374.75;4958661;28;20052;-84
2021/01/01 07:43:22;;;;;;;283.00;140.48;;;;;;;-0.64;100.00;100367.59;4989198;28;20042;-85
2021/01/01 07:45:48;;;;;;;282.00;136.10;;;;;;;-0.73;100.00;100364.63;5008718;28;20046;-86
2021/01/01 07:48:14;;;;;;;326.60;153.77;;;;;;;-0.60;100.00;100367.28;5008108;28;20056;-86
2021/01/01 07:50:40;;;;;;;262.27;126.07;;;;;;;-0.62;100.00;100374.44;4991592;28;20485;-85
2021/01/01 07:53:10;;;;;;;265.77;127.50;;;;;;;-0.64;100.00;100367.59;5003813;28;20544;-90
2021/01/01 07:55:37;;;;;;;268.20;132.73;;;;;;;-0.73;100.00;100376.97;5008256;28;20096;-83
2021/01/01 07:58:13;;;;;;;271.50;134.82;;;;;;;-0.79;100.00;100370.31;4990249;28;20236;-85
2021/01/01 08:00:46;;;;;;;281.65;139.75;;;;;;;-0.80;100.00;100376.53;4975713;28;20052;-83
2021/01/01 08:03:13;;;;;;;304.05;142.48;;;;;;;-0.76;100.00;100382.44;4989584;28;20474;-86
2021/01/01 08:05:44;;;;;;;300.30;145.15;;;;;;;-0.73;100.00;100383.06;4991403;28;20070;-86
2021/01/01 08:08:12;;;;;;;287.73;144.10;;;;;;;-0.69;100.00;100381.09;5008899;28;20038;-86
2021/01/01 08:10:39;;;;;;;303.00;146.60;;;;;;;-0.66;100.00;100382.66;4990524;28;20046;-85
2021/01/01 08:13:40;;;;;;;289.13;140.90;;;;;;;-0.63;100.00;100383.31;4990974;28;20358;-84
2021/01/01 08:16:11;;;;;;;296.00;141.90;;;;;;;-0.65;100.00;100385.19;4997423;28;20532;-85
2021/01/01 08:18:37;;;;;;;315.27;149.10;;;;;;;-0.66;100.00;100385.28;4989443;28;20057;-85
2021/01/01 08:21:04;;;;;;;302.83;145.82;;;;;;;-0.61;100.00;100384.03;4975637;28;20087;-87
2021/01/01 08:24:06;;;;;;;297.42;141.25;;;;;;;-0.61;100.00;100385.84;5005275;28;20046;-85
2021/01/01 08:26:37;;;;;;;323.35;148.23;;;;;;;-0.63;100.00;100387.72;5009187;28;20054;-86
2021/01/01 08:29:08;;;;;;;300.55;143.07;;;;;;;-0.58;100.00;100381.19;4998348;28;20417;-84
2021/01/01 08:31:35;;;;;;;301.95;127.88;;;;;;;-0.48;100.00;100395.47;4998262;28;20343;-86
2021/01/01 08:34:00;;;;;;;316.85;133.40;;;;;;;-0.35;100.00;100387.53;4997359;28;20042;-87
2021/01/01 08:36:31;;;;;;;309.20;146.90;;;;;;;-0.27;100.00;100390.50;4985531;28;20454;-86
2021/01/01 08:39:11;;;;;;;314.23;149.35;;;;;;;-0.17;100.00;100401.28;4991050;28;20037;-82
2021/01/01 08:41:41;;;;;;;321.17;146.70;;;;;;;-0.12;100.00;100398.31;4997737;28;20058;-85
2021/01/01 08:44:11;;;;;;;287.33;136.35;;;;;;;-0.17;100.00;100396.03;5009896;28;20050;-83
2021/01/01 08:46:36;;;;;;;307.77;146.52;;;;;;;-0.07;100.00;100397.06;4996939;28;20034;-85
2021/01/01 08:49:19;;;;;;;296.15;128.35;;;;;;;-0.03;100.00;100397.69;4991401;28;20149;-87
2021/01/01 08:51:46;;;;;;;281.88;122.65;;;;;;;0.02;100.00;100400.84;4953938;28;20038;-86
2021/01/01 08:54:21;;;;;;;282.85;137.10;;;;;;;0.14;100.00;100405.28;4991635;28;20047;-85
2021/01/01 08:56:48;;;;;;;272.85;129.52;;;;;;;0.19;100.00;100400.53;5008303;28;20041;-86
2021/01/01 08:59:13;;;;;;;269.92;129.32;;;;;;;0.22;100.00;100396.84;4974668;28;20038;-82
2021/01/01 09:01:40;;;;;;;257.20;128.27;;;;;;;0.26;100.00;100408.00;4984222;28;20041;-85
2021/01/01 09:04:05;;;;;;;249.50;126.55;;;;;;;0.30;100.00;100404.22;5010287;28;20038;-86
2021/01/01 09:06:31;;;;;;;245.57;122.95;;;;;;;0.32;100.00;100408.44;4998301;28;20038;-85
2021/01/01 09:09:06;;;;;;;244.43;111.88;;;;;;;0.34;100.00;100406.53;4959257;28;20073;-88
2021/01/01 09:11:32;;;;;;;239.52;118.00;;;;;;;0.37;100.00;100410.75;5007731;28;20489;-82
2021/01/01 09:14:03;;;;;;;243.73;123.13;;;;;;;0.38;100.00;100413.28;4995653;28;20046;-84
2021/01/01 09:16:29;;;;;;;241.40;119.93;;;;;;;0.44;100.00;100422.56;4995311;28;20058;-87
2021/01/01 09:18:54;;;;;;;235.75;118.30;;;;;;;0.49;100.00;100423.09;5011244;28;20356;-85
2021/01/01 09:21:20;;;;;;;242.27;122.93;;;;;;;0.49;100.00;100415.19;4975829;28;20045;-85
2021/01/01 09:23:53;;;;;;;231.77;115.00;;;;;;;0.49;100.00;100420.47;5009710;28;20129;-82
2021/01/01 09:26:22;;;;;;;219.65;104.35;;;;;;;0.52;100.00;100425.53;4969075;28;20073;-85
2021/01/01 09:28:49;;;;;;;238.95;122.20;;;;;;;0.58;100.00;100424.25;4989328;28;20359;-83
2021/01/01 09:31:17;;;;;;;234.80;126.70;;;;;;;0.59;100.00;100425.91;4991654;28;20042;-83
2021/01/01 09:34:08;;;;;;;231.13;120.35;;;;;;;0.63;100.00;100430.00;4991183;28;20136;-83
2021/01/01 09:36:40;;;;;;;223.45;117.35;;;;;;;0.63;100.00;100433.53;4989978;28;20541;-87
2021/01/01 09:39:07;;;;;;;225.93;119.60;;;;;;;0.66;100.00;100433.31;4991264;28;20133;-87
2021/01/01 09:41:33;;;;;;;212.82;110.10;;;;;;;0.70;100.00;100433.09;4993148;28;20080;-87
2021/01/01 09:43:58;;;;;;;205.65;101.05;;;;;;;0.70;100.00;100439.19;5010102;28;20057;-85
2021/01/01 09:46:24;;;;;;;201.15;100.90;;;;;;;0.74;100.00;100434.53;4975407;28;20042;-84
2021/01/01 09:48:49;;;;;;;208.07;109.80;;;;;;;0.80;100.00;100440.22;5008643;28;20041;-86
2021/01/01 09:51:15;;;;;;;205.23;109.45;;;;;;;0.85;100.00;100437.25;4988704;28;20126;-85
2021/01/01 09:53:40;;;;;;;183.52;97.60;;;;;;;0.85;100.00;100439.91;4976453;28;20038;-88
2021/01/01 09:56:06;;;;;;;201.27;108.78;;;;;;;0.90;100.00;100445.69;4990726;28;20445;-84
2021/01/01 09:58:32;;;;;;;172.13;87.10;;;;;;;0.89;100.00;100449.28;4990776;28;20045;-86
2021/01/01 10:00:57;;;;;;;189.77;98.25;;;;;;;0.93;100.00;100448.13;5007663;28;20046;-84
2021/01/01 10:03:23;;;;;;;175.52;87.93;;;;;;;0.93;100.00;100450.75;4994162;28;20034;-84
2021/01/01 10:05:48;;;;;;;181.50;95.97;;;;;;;0.95;100.00;100443.56;4975556;28;20045;-85
2021/01/01 10:08:17;;;;;;;169.60;89.13;;;;;;;0.97;100.00;100446.94;4973767;28;20092;-85
2021/01/01 10:10:46;;;;;;;162.88;81.70;;;;;;;1.02;100.00;100442.16;4990010;28;20042;-87
2021/01/01 10:13:12;;;;;;;163.25;90.22;;;;;;;1.08;100.00;100454.09;4990117;28;20375;-83
2021/01/01 10:15:38;;;;;;;161.18;87.05;;;;;;;1.09;100.00;100456.63;5007456;28;20049;-87
2021/01/01 10:18:04;;;;;;;157.77;73.32;;;;;;;1.13;100.00;100457.25;4991261;28;20072;-85
2021/01/01 10:20:29;;;;;;;159.60;89.30;;;;;;;1.18;100.00;100455.13;5006489;28;20375;-85
2021/01/01 10:22:56;;;;;;;154.73;81.13;;;;;;;1.22;100.00;100455.72;5010160;28;20057;-87
2021/01/01 10:25:21;;;;;;;154.18;85.38;;;;;;;1.26;100.00;100457.19;4959902;28;20038;-85
2021/01/01 10:27:47;;;;;;;143.07;67.72;;;;;;;1.28;100.00;100457.91;4974132;28;20049;-88
2021/01/01 10:30:12;;;;;;;136.15;69.60;;;;;;;1.29;100.00;100455.16;4976193;28;20074;-82
2021/01/01 10:32:38;;;;;;;128.30;62.42;;;;;;;1.31;100.00;100455.88;4975769;28;20052;-85
2021/01/01 10:35:04;;;;;;;136.82;74.07;;;;;;;1.37;100.00;100446.66;4975850;28;20049;-87
2021/01/01 10:37:29;;;;;;;124.32;71.90;;;;;;;1.38;100.00;100450.13;4987629;28;20394;-83
2021/01/01 10:39:54;;;;;;;122.20;71.97;;;;;;;1.42;100.00;100457.75;4975991;28;20057;-90
2021/01/01 10:42:24;;;;;;;128.05;61.20;;;;;;;1.45;100.00;100462.81;4973325;28;20048;-86
2021/01/01 10:44:50;;;;;;;115.45;57.10;;;;;;;1.46;100.00;100456.53;4990771;28;20108;-86
2021/01/01 10:47:15;;;;;;;126.68;68.85;;;;;;;1.48;100.00;100457.28;4975873;28;20048;-85
2021/01/01 10:49:40;;;;;;;124.95;64.97;;;;;;;1.52;100.00;100461.38;5009762;28;20038;-82
2021/01/01 10:52:06;;;;;;;118.07;59.35;;;;;;;1.52;100.00;100466.66;4965830;28;20111;-86
2021/01/01 10:54:32;;;;;;;124.45;68.22;;;;;;;1.54;100.00;100456.81;5010600;28;20049;-83